首页
METAR-TAF:

METAR-TAF

机场 :

St. Catharines, 安大略省, 加拿大

纬度: 43-12N, 经度: 079-10W, 海拔: 98米

当前天气观测

该预报发布于6小时和7分钟前的02:00 UTC
风速6节,风向东转东南
温度 -5°C
湿度 79%
气压 1027 hPa
能見度: 24.1公里
散云层高于24000英尺

METAR: CYSN 130200Z 11006KT 15SM SCT240 M05/M08 A3032 RMK CI3 LAST STFD OBS/NEXT 131200Z SLP275

时间: 03:07 (08:07 UTC)

预报

该预报发布于12小时和28分钟前的19:39 UTC
预报有效从12日的 20点(UTC)到 13日的 02点(UTC)
风速12节,风向
能見度: 10公里
多云层高于14000英尺
从 12日的 2200点(UTC)
风速12节,风向
能見度: 10公里
散云层高于14000英尺
多云层高于24000英尺

TAF: CYSN 121939Z 1220/1302 18012KT P6SM BKN140 FM122200 18012KT P6SM SCT140 BKN240 RMK NXT FCST WILL BE ISSUED AT 131345Z

超过4000个机场的气象观测和天气预报(METAR&TAF报告)。

可查询的气象台以黄色和红色小点在地图上表示。

将鼠标移到小点上方,可查看气象台名称。

然后点击查看天气观测和预报。

如需切换地图:点击带黑十字的绿色按钮放大地图;点击带横线的绿色按钮缩小地图;或者点击绿色箭头查看邻近地区的地图。


METAR-TAF: